Station Historical Data
Daily Summary for December 13, 2017 Units:  English    Metric   Both
« Previous Day
Next Day »
Daily Weekly Monthly Yearly Custom
  High: Low: Average:
Temperature: 20.4 °F 9.4 °F 15.1 °F
Dew Point: 13.4 °F 3.1 °F 8 °F
Humidity: 85% 60% 74%
Wind Speed: 11.0mph 0.0mph 4.1mph
Wind Gust: 17.0mph - -
Wind- - SW
Pressure: 29.78 in 29.58 in -
Precipitation: 0.00 in    
Historical Graphs
 
 
Tabular Data for December 13, 2017
Time Temperature Dew Point Pressure Wind Wind Speed Wind Gust Humidity Rainfall Rate (Hourly)
00:04 12.0 °F 5.9 °F 29.65 in West 7.0 mph 16.0 mph 76% 0.00 in
00:24 11.7 °F 5.3 °F 29.65 in WSW 8.0 mph 14.0 mph 75% 0.00 in
00:29 11.7 °F 5.3 °F 29.64 in West 8.0 mph 11.0 mph 75% 0.00 in
00:34 11.7 °F 5.3 °F 29.65 in West 4.0 mph 16.0 mph 75% 0.00 in
00:39 11.6 °F 5.2 °F 29.64 in West 5.0 mph 16.0 mph 75% 0.00 in
00:49 11.7 °F 5.6 °F 29.65 in West 7.0 mph 14.0 mph 76% 0.00 in
00:59 11.5 °F 5.7 °F 29.65 in West 7.0 mph 17.0 mph 77% 0.00 in
01:04 11.4 °F 5.6 °F 29.65 in West 7.0 mph 15.0 mph 77% 0.00 in
01:09 11.4 °F 5.6 °F 29.65 in WSW 8.0 mph 15.0 mph 77% 0.00 in
01:24 11.3 °F 5.8 °F 29.66 in WNW 8.0 mph 13.0 mph 78% 0.00 in
01:39 11.3 °F 6.1 °F 29.66 in West 6.0 mph 12.0 mph 79% 0.00 in
01:44 11.2 °F 6.0 °F 29.66 in West 8.0 mph 16.0 mph 79% 0.00 in
01:49 11.3 °F 6.3 °F 29.66 in West 5.0 mph 15.0 mph 80% 0.00 in
01:59 11.4 °F 6.7 °F 29.66 in West 6.0 mph 12.0 mph 81% 0.00 in
02:04 11.5 °F 6.8 °F 29.66 in West 7.0 mph 12.0 mph 81% 0.00 in
02:14 11.5 °F 6.8 °F 29.66 in West 6.0 mph 11.0 mph 81% 0.00 in
02:19 11.6 °F 6.9 °F 29.67 in West 5.0 mph 12.0 mph 81% 0.00 in
02:24 11.7 °F 7.0 °F 29.67 in West 2.0 mph 12.0 mph 81% 0.00 in
02:29 11.8 °F 7.1 °F 29.67 in West 6.0 mph 13.0 mph 81% 0.00 in
02:44 12.3 °F 7.6 °F 29.67 in WNW 7.0 mph 11.0 mph 81% 0.00 in
02:49 12.4 °F 7.7 °F 29.67 in West 6.0 mph 11.0 mph 81% 0.00 in
02:54 12.6 °F 7.6 °F 29.67 in WNW 5.0 mph 11.0 mph 80% 0.00 in
02:59 13.0 °F 8.0 °F 29.68 in WNW 5.0 mph 11.0 mph 80% 0.00 in
03:09 13.5 °F 8.5 °F 29.68 in WNW 7.0 mph 12.0 mph 80% 0.00 in
03:14 13.7 °F 8.7 °F 29.68 in WNW 7.0 mph 11.0 mph 80% 0.00 in
03:24 14.0 °F 9.0 °F 29.69 in West 4.0 mph 13.0 mph 80% 0.00 in
03:29 13.9 °F 8.9 °F 29.69 in WSW 2.0 mph 9.0 mph 80% 0.00 in
03:44 13.3 °F 8.0 °F 29.69 in West 6.0 mph 13.0 mph 79% 0.00 in
03:49 13.2 °F 7.9 °F 29.69 in West 6.0 mph 13.0 mph 79% 0.00 in
03:54 13.2 °F 7.6 °F 29.69 in West 6.0 mph 12.0 mph 78% 0.00 in
03:59 13.2 °F 7.6 °F 29.69 in West 5.0 mph 11.0 mph 78% 0.00 in
04:14 13.1 °F 7.0 °F 29.70 in West 3.0 mph 13.0 mph 76% 0.00 in
04:19 13.0 °F 6.9 °F 29.70 in West 3.0 mph 11.0 mph 76% 0.00 in
04:24 12.9 °F 6.8 °F 29.70 in West 4.0 mph 13.0 mph 76% 0.00 in
04:34 12.8 °F 6.7 °F 29.71 in West 5.0 mph 10.0 mph 76% 0.00 in
04:44 12.6 °F 6.2 °F 29.71 in West 5.0 mph 11.0 mph 75% 0.00 in
04:49 12.5 °F 6.1 °F 29.71 in West 6.0 mph 11.0 mph 75% 0.00 in
05:04 12.1 °F 5.4 °F 29.72 in West 5.0 mph 10.0 mph 74% 0.00 in
05:09 11.9 °F 5.2 °F 29.72 in West 5.0 mph 11.0 mph 74% 0.00 in
05:14 11.8 °F 5.1 °F 29.72 in WSW 5.0 mph 11.0 mph 74% 0.00 in
05:19 11.6 °F 4.9 °F 29.72 in WSW 5.0 mph 10.0 mph 74% 0.00 in
05:24 11.4 °F 4.7 °F 29.72 in West 3.0 mph 8.0 mph 74% 0.00 in
05:29 11.3 °F 4.6 °F 29.72 in WSW 4.0 mph 10.0 mph 74% 0.00 in
05:34 11.2 °F 4.5 °F 29.72 in SW 7.0 mph 11.0 mph 74% 0.00 in
05:39 11.2 °F 4.5 °F 29.72 in WSW 9.0 mph 12.0 mph 74% 0.00 in
05:44 11.2 °F 4.8 °F 29.73 in West 6.0 mph 9.0 mph 75% 0.00 in
05:49 11.2 °F 4.8 °F 29.73 in West 6.0 mph 9.0 mph 75% 0.00 in
05:59 11.2 °F 4.8 °F 29.73 in West 5.0 mph 10.0 mph 75% 0.00 in
06:04 11.2 °F 4.8 °F 29.74 in West 5.0 mph 9.0 mph 75% 0.00 in
06:09 11.1 °F 4.7 °F 29.74 in WSW 5.0 mph 11.0 mph 75% 0.00 in
06:14 11.1 °F 5.0 °F 29.74 in SW 4.0 mph 9.0 mph 76% 0.00 in
06:19 11.1 °F 5.0 °F 29.74 in West 5.0 mph 9.0 mph 76% 0.00 in
06:24 11.1 °F 5.0 °F 29.74 in WNW 6.0 mph 9.0 mph 76% 0.00 in
06:34 11.2 °F 5.1 °F 29.75 in West 4.0 mph 9.0 mph 76% 0.00 in
06:39 11.2 °F 5.1 °F 29.75 in WSW 4.0 mph 9.0 mph 76% 0.00 in
06:44 11.3 °F 5.2 °F 29.75 in WSW 6.0 mph 8.0 mph 76% 0.00 in
06:49 11.3 °F 5.2 °F 29.75 in SW 7.0 mph 8.0 mph 76% 0.00 in
06:54 11.2 °F 5.1 °F 29.75 in West 5.0 mph 8.0 mph 76% 0.00 in
06:59 11.2 °F 4.8 °F 29.75 in WSW 5.0 mph 10.0 mph 75% 0.00 in
07:09 10.9 °F 4.5 °F 29.76 in WSW 5.0 mph 9.0 mph 75% 0.00 in
07:14 10.7 °F 4.0 °F 29.76 in WSW 5.0 mph 9.0 mph 74% 0.00 in
07:24 10.3 °F 3.7 °F 29.76 in WSW 4.0 mph 7.0 mph 74% 0.00 in
07:29 10.0 °F 3.4 °F 29.76 in WSW 5.0 mph 12.0 mph 74% 0.00 in
07:34 9.8 °F 3.2 °F 29.76 in West 7.0 mph 11.0 mph 74% 0.00 in
07:49 9.5 °F 3.2 °F 29.76 in West 5.0 mph 10.0 mph 75% 0.00 in
07:54 9.4 °F 3.1 °F 29.76 in West 4.0 mph 9.0 mph 75% 0.00 in
07:59 9.4 °F 3.1 °F 29.76 in West 5.0 mph 11.0 mph 75% 0.00 in
08:04 9.4 °F 3.1 °F 29.75 in West 5.0 mph 11.0 mph 75% 0.00 in
08:09 9.4 °F 3.4 °F 29.75 in West 5.0 mph 10.0 mph 76% 0.00 in
08:14 9.4 °F 3.4 °F 29.76 in WSW 5.0 mph 11.0 mph 76% 0.00 in
08:24 9.7 °F 3.7 °F 29.76 in WSW 3.0 mph 13.0 mph 76% 0.00 in
08:29 9.8 °F 3.7 °F 29.76 in West 7.0 mph 8.0 mph 76% 0.00 in
08:34 9.9 °F 3.8 °F 29.76 in West 6.0 mph 15.0 mph 76% 0.00 in
08:44 10.0 °F 3.9 °F 29.76 in West 5.0 mph 11.0 mph 76% 0.00 in
08:49 10.0 °F 3.9 °F 29.76 in West 6.0 mph 11.0 mph 76% 0.00 in
08:54 10.3 °F 4.2 °F 29.76 in West 3.0 mph 13.0 mph 76% 0.00 in
08:59 10.6 °F 4.8 °F 29.76 in West 5.0 mph 13.0 mph 77% 0.00 in
09:04 10.7 °F 4.9 °F 29.77 in West 5.0 mph 12.0 mph 77% 0.00 in
09:09 11.0 °F 5.2 °F 29.77 in WSW 7.0 mph 11.0 mph 77% 0.00 in
09:14 11.3 °F 5.5 °F 29.77 in West 5.0 mph 13.0 mph 77% 0.00 in
09:19 11.6 °F 5.8 °F 29.77 in West 6.0 mph 13.0 mph 77% 0.00 in
09:24 11.9 °F 5.8 °F 29.77 in West 6.0 mph 11.0 mph 76% 0.00 in
09:34 13.0 °F 6.6 °F 29.77 in WNW 6.0 mph 11.0 mph 75% 0.00 in
09:39 13.4 °F 7.0 °F 29.78 in WSW 3.0 mph 11.0 mph 75% 0.00 in
09:44 13.8 °F 7.0 °F 29.78 in West 5.0 mph 9.0 mph 74% 0.00 in
09:49 14.1 °F 7.3 °F 29.78 in West 5.0 mph 11.0 mph 74% 0.00 in
09:54 14.1 °F 7.0 °F 29.78 in West 5.0 mph 11.0 mph 73% 0.00 in
09:59 14.2 °F 7.1 °F 29.78 in West 5.0 mph 9.0 mph 73% 0.00 in
10:04 14.5 °F 7.4 °F 29.78 in WNW 4.0 mph 11.0 mph 73% 0.00 in
10:09 14.8 °F 7.7 °F 29.78 in West 5.0 mph 6.0 mph 73% 0.00 in
10:14 15.0 °F 7.6 °F 29.78 in WNW 5.0 mph 9.0 mph 72% 0.00 in
10:24 15.2 °F 7.8 °F 29.78 in West 4.0 mph 9.0 mph 72% 0.00 in
10:34 15.2 °F 7.5 °F 29.78 in WNW 6.0 mph 14.0 mph 71% 0.00 in
10:39 15.5 °F 7.8 °F 29.78 in WNW 9.0 mph 9.0 mph 71% 0.00 in
10:44 15.6 °F 7.9 °F 29.78 in West 7.0 mph 10.0 mph 71% 0.00 in
10:49 16.1 °F 8.3 °F 29.78 in West 4.0 mph 10.0 mph 71% 0.00 in
10:54 16.4 °F 8.6 °F 29.78 in West 5.0 mph 11.0 mph 71% 0.00 in
10:59 16.4 °F 8.6 °F 29.78 in West 5.0 mph 11.0 mph 71% 0.00 in
11:04 16.6 °F 8.5 °F 29.77 in West 6.0 mph 11.0 mph 70% 0.00 in
11:09 16.8 °F 8.7 °F 29.77 in West 7.0 mph 12.0 mph 70% 0.00 in
11:14 17.0 °F 8.9 °F 29.77 in WNW 6.0 mph 12.0 mph 70% 0.00 in
11:19 17.3 °F 9.2 °F 29.77 in WNW 5.0 mph 10.0 mph 70% 0.00 in
11:24 17.3 °F 8.9 °F 29.77 in West 6.0 mph 13.0 mph 69% 0.00 in
11:34 17.6 °F 9.2 °F 29.77 in West 7.0 mph 12.0 mph 69% 0.00 in
11:39 17.6 °F 8.8 °F 29.77 in West 6.0 mph 12.0 mph 68% 0.00 in
11:44 17.7 °F 8.6 °F 29.76 in West 7.0 mph 13.0 mph 67% 0.00 in
11:49 17.6 °F 8.5 °F 29.76 in West 6.0 mph 13.0 mph 67% 0.00 in
11:54 17.5 °F 8.7 °F 29.76 in West 5.0 mph 11.0 mph 68% 0.00 in
12:04 18.0 °F 8.2 °F 29.76 in West 8.0 mph 10.0 mph 65% 0.00 in
12:09 18.3 °F 8.1 °F 29.75 in West 6.0 mph 13.0 mph 64% 0.00 in
12:14 18.2 °F 7.7 °F 29.76 in WSW 4.0 mph 9.0 mph 63% 0.00 in
12:19 18.3 °F 7.8 °F 29.76 in WNW 8.0 mph 11.0 mph 63% 0.00 in
12:24 18.2 °F 7.7 °F 29.75 in WNW 6.0 mph 11.0 mph 63% 0.00 in
12:29 18.3 °F 7.4 °F 29.75 in WNW 11.0 mph 13.0 mph 62% 0.00 in
12:39 19.3 °F 8.0 °F 29.75 in West 5.0 mph 11.0 mph 61% 0.00 in
12:44 19.3 °F 8.0 °F 29.74 in West 6.0 mph 14.0 mph 61% 0.00 in
12:49 19.1 °F 7.8 °F 29.74 in West 7.0 mph 16.0 mph 61% 0.00 in
12:54 19.8 °F 8.5 °F 29.75 in West 6.0 mph 16.0 mph 61% 0.00 in
13:04 19.3 °F 8.0 °F 29.74 in West 3.0 mph 12.0 mph 61% 0.00 in
13:09 19.8 °F 8.5 °F 29.74 in West 2.0 mph 9.0 mph 61% 0.00 in
13:14 19.3 °F 7.7 °F 29.74 in WSW 3.0 mph 13.0 mph 60% 0.00 in
13:24 19.4 °F 8.1 °F 29.74 in West 4.0 mph 8.0 mph 61% 0.00 in
13:34 19.6 °F 8.7 °F 29.73 in West 5.0 mph 12.0 mph 62% 0.00 in
13:54 19.5 °F 8.2 °F 29.72 in West 4.0 mph 11.0 mph 61% 0.00 in
14:04 19.6 °F 8.3 °F 29.72 in West 3.0 mph 11.0 mph 61% 0.00 in
14:09 19.6 °F 8.7 °F 29.72 in WNW 6.0 mph 9.0 mph 62% 0.00 in
14:24 19.9 °F 8.6 °F 29.71 in West 5.0 mph 11.0 mph 61% 0.00 in
14:29 20.0 °F 8.7 °F 29.71 in West 5.0 mph 11.0 mph 61% 0.00 in
14:34 19.8 °F 8.9 °F 29.71 in West 5.0 mph 10.0 mph 62% 0.00 in
14:39 20.2 °F 9.2 °F 29.71 in West 5.0 mph 10.0 mph 62% 0.00 in
14:44 20.4 °F 9.4 °F 29.71 in West 4.0 mph 8.0 mph 62% 0.00 in
14:54 20.0 °F 9.1 °F 29.70 in WNW 4.0 mph 8.0 mph 62% 0.00 in
15:04 19.4 °F 8.5 °F 29.70 in WNW 3.0 mph 7.0 mph 62% 0.00 in
15:09 19.3 °F 8.4 °F 29.70 in NW 2.0 mph 6.0 mph 62% 0.00 in
15:14 19.3 °F 8.8 °F 29.70 in WNW 3.0 mph 8.0 mph 63% 0.00 in
15:24 18.6 °F 8.4 °F 29.70 in WNW 3.0 mph 6.0 mph 64% 0.00 in
15:39 18.5 °F 8.3 °F 29.69 in NW 2.0 mph 5.0 mph 64% 0.00 in
16:14 18.5 °F 8.3 °F 29.69 in NW 2.0 mph 7.0 mph 64% 0.00 in
16:19 18.5 °F 8.3 °F 29.69 in NW 2.0 mph 7.0 mph 64% 0.00 in
16:24 18.4 °F 8.6 °F 29.70 in WNW 2.0 mph 4.0 mph 65% 0.00 in
16:29 18.3 °F 8.5 °F 29.69 in WNW 2.0 mph 4.0 mph 65% 0.00 in
16:34 18.0 °F 8.2 °F 29.69 in WNW 1.0 mph 4.0 mph 65% 0.00 in
16:39 18.0 °F 8.2 °F 29.69 in WNW 1.0 mph 3.0 mph 65% 0.00 in
16:44 18.0 °F 8.5 °F 29.68 in WNW 1.0 mph 3.0 mph 66% 0.00 in
16:49 18.0 °F 8.2 °F 29.68 in Calm   1.0 mph 65% 0.00 in
16:54 17.8 °F 8.0 °F 29.68 in Calm     65% 0.00 in
17:04 17.8 °F 8.4 °F 29.67 in Calm     66% 0.00 in
17:09 17.9 °F 8.1 °F 29.67 in Calm     65% 0.00 in
17:19 17.8 °F 8.4 °F 29.67 in Calm     66% 0.00 in
17:24 17.8 °F 8.4 °F 29.66 in Calm     66% 0.00 in
17:39 18.0 °F 8.2 °F 29.66 in Calm   1.0 mph 65% 0.00 in
17:44 18.0 °F 8.5 °F 29.66 in Calm   3.0 mph 66% 0.00 in
17:49 18.1 °F 9.0 °F 29.66 in Calm   3.0 mph 67% 0.00 in
17:54 18.3 °F 9.2 °F 29.65 in Calm   2.0 mph 67% 0.00 in
18:04 18.4 °F 9.3 °F 29.65 in Calm   2.0 mph 67% 0.00 in
18:09 18.4 °F 9.3 °F 29.65 in North 2.0 mph 3.0 mph 67% 0.00 in
18:24 18.5 °F 9.4 °F 29.65 in SE 1.0 mph 4.0 mph 67% 0.00 in
18:29 18.5 °F 9.4 °F 29.65 in SE 1.0 mph 3.0 mph 67% 0.00 in
18:34 18.4 °F 9.3 °F 29.65 in South 1.0 mph 4.0 mph 67% 0.00 in
18:44 18.4 °F 9.3 °F 29.65 in SSE 4.0 mph 4.0 mph 67% 0.00 in
18:54 18.4 °F 9.6 °F 29.65 in SE 2.0 mph 5.0 mph 68% 0.00 in
18:59 18.3 °F 9.5 °F 29.65 in SSE 2.0 mph 5.0 mph 68% 0.00 in
19:04 18.4 °F 9.6 °F 29.65 in SSE 2.0 mph 5.0 mph 68% 0.00 in
19:24 18.0 °F 9.9 °F 29.65 in SE 3.0 mph 5.0 mph 70% 0.00 in
19:29 17.9 °F 10.1 °F 29.65 in SSE 3.0 mph 6.0 mph 71% 0.00 in
19:34 17.7 °F 10.2 °F 29.65 in SSE 3.0 mph 6.0 mph 72% 0.00 in
19:39 17.7 °F 10.5 °F 29.65 in SSE 2.0 mph 5.0 mph 73% 0.00 in
19:44 17.5 °F 10.9 °F 29.65 in SSE 2.0 mph 5.0 mph 75% 0.00 in
19:49 17.5 °F 11.2 °F 29.65 in SSE 3.0 mph 4.0 mph 76% 0.00 in
19:54 17.4 °F 11.1 °F 29.65 in SSE 2.0 mph 4.0 mph 76% 0.00 in
19:59 17.4 °F 11.4 °F 29.64 in SSE 3.0 mph 5.0 mph 77% 0.00 in
20:14 17.0 °F 11.3 °F 29.64 in SSE 2.0 mph 4.0 mph 78% 0.00 in
20:19 16.9 °F 11.5 °F 29.64 in SSE 2.0 mph 5.0 mph 79% 0.00 in
20:24 16.9 °F 11.5 °F 29.64 in SSE 2.0 mph 5.0 mph 79% 0.00 in
20:29 17.0 °F 11.6 °F 29.64 in SE 2.0 mph 4.0 mph 79% 0.00 in
20:39 16.8 °F 11.7 °F 29.65 in SE 2.0 mph 5.0 mph 80% 0.00 in
20:44 16.8 °F 11.7 °F 29.65 in SSE 2.0 mph 5.0 mph 80% 0.00 in
20:49 16.9 °F 12.1 °F 29.65 in SE 1.0 mph 4.0 mph 81% 0.00 in
20:54 16.9 °F 12.1 °F 29.65 in Calm   3.0 mph 81% 0.00 in
20:59 16.9 °F 12.4 °F 29.65 in SE 1.0 mph 3.0 mph 82% 0.00 in
21:04 16.9 °F 12.4 °F 29.65 in Calm   3.0 mph 82% 0.00 in
21:09 16.9 °F 12.4 °F 29.64 in SE 1.0 mph 2.0 mph 82% 0.00 in
21:24 16.9 °F 12.6 °F 29.64 in Calm   2.0 mph 83% 0.00 in
21:29 16.9 °F 12.6 °F 29.64 in Calm     83% 0.00 in
21:34 16.9 °F 12.9 °F 29.64 in Calm     84% 0.00 in
21:49 16.8 °F 12.8 °F 29.63 in East 1.0 mph 2.0 mph 84% 0.00 in
21:54 16.8 °F 13.1 °F 29.62 in East 1.0 mph 3.0 mph 85% 0.00 in
21:59 16.9 °F 13.2 °F 29.62 in East 1.0 mph 3.0 mph 85% 0.00 in
22:04 16.8 °F 13.1 °F 29.61 in East 2.0 mph 5.0 mph 85% 0.00 in
22:29 16.9 °F 13.2 °F 29.60 in ENE 2.0 mph 4.0 mph 85% 0.00 in
22:34 16.9 °F 13.2 °F 29.60 in ENE 3.0 mph 7.0 mph 85% 0.00 in
22:44 16.9 °F 13.2 °F 29.60 in ENE 3.0 mph 5.0 mph 85% 0.00 in
22:49 16.9 °F 13.2 °F 29.59 in ENE 2.0 mph 5.0 mph 85% 0.00 in
22:59 16.9 °F 13.2 °F 29.59 in NE 3.0 mph 6.0 mph 85% 0.00 in
23:04 17.0 °F 13.3 °F 29.59 in ENE 3.0 mph 5.0 mph 85% 0.00 in
23:14 17.0 °F 13.3 °F 29.59 in East 3.0 mph 6.0 mph 85% 0.00 in
23:19 16.9 °F 13.2 °F 29.59 in ENE 2.0 mph 7.0 mph 85% 0.00 in
23:29 16.9 °F 13.2 °F 29.59 in NE 4.0 mph 8.0 mph 85% 0.00 in
23:30 16.9 °F 13.2 °F 29.59 in NE 1.0 mph 7.0 mph 85% 0.00 in
23:34 17.0 °F 13.3 °F 29.58 in NE 3.0 mph 7.0 mph 85% 0.00 in
23:39 17.0 °F 13.3 °F 29.58 in NE 3.0 mph 7.0 mph 85% 0.00 in
23:44 17.0 °F 13.3 °F 29.58 in NE 3.0 mph 6.0 mph 85% 0.00 in
23:49 17.0 °F 13.3 °F 29.58 in NE 3.0 mph 6.0 mph 85% 0.00 in
23:59 17.1 °F 13.4 °F 29.58 in NE 3.0 mph 7.0 mph 85% 0.00 in
Buffalo, New York, USA
Compliments of Weather Underground - 2 mb